Nevada, TX (75173)

05:26 CDT le 26 septembre 2016 (GMT -0500)
Nevada Lakes | | Change Station

Alt. 600 ft 33.05 °N, 96.38 °W | Updated 9 minutes ago

Light Rain
Pluie fine
65.3 ° F
Paraît 65.3 ° F
N
7.3
Vent Variable Vent de NNE

Aujourd'hui
Haut(e) -- | Bas -- ° F
--% Risque de précip.
Hier
Haut(e) -- | Bas -- ° F
Precip. -- pouce
Pression 30.09 pouce
Visibilité 10.0 Miles terrestres
Nuages Couvert 1100 ft
Point de rosée 64 ° F
Humidité 97%
Précipitations 0.00 pouce
Profondeur de la couche neigeuse Non disponible.
7:16 AM 7:16 PM
Lune descendante, 20% visible
METAR KF46 261015Z AUTO 01010G15KT 310V020 10SM -RA OVC011 19/19 A3009 RMK AO2 T01910185
Pression 30.09 pouce
Visibilité 10.0 Miles terrestres
Nuages Couvert 1100 ft
Point de rosée 64 ° F
Humidité 97%
Précipitations 0.00 pouce
Profondeur de la couche neigeuse Non disponible.
7:16 AM 7:16 PM
Lune descendante, 20% visible
METAR KF46 261015Z AUTO 01010G15KT 310V020 10SM -RA OVC011 19/19 A3009 RMK AO2 T01910185

10-Day Weather Forecast

Almanac

Astronomie

Sep. 26, 2016 Lever Coucher
Temps réel
Crépuscule civil
Crépuscule nautique
Crépuscule astronomique
Lune
Durée de lumière visible
Longueur du jour
Tomorrow will be .
, % of the Moon is Illuminated

Extrêmes aujourd'hui

State Highs State Lows

Community

WunderPhotos

Upload Photos

1,941,852 Photos téléchargées !

WunderBlog® & News

Nearby

Qualité de l'air

  Qualité de l'air Indice de la qualité de l'air Polluant
Not available.

Épaisseur de neige

Station Depth Altitude

Activité sismique

Ville Distance Mag. Time & Date
Minimum magnitude displayed is 2.5.

Températures des eaux côtières

Lieu Température

Stations

Stations météo à proximité

Emplacement de la station Température Refroidissement éolien Point de rosée Humidité Vent Precip. Alt. Mise à jour Type
                   

Watches & Warnings

There are currently no watches in effect.